Kobuk Valley National Park, AK

3:32 AM AKDT op 02 september 2014 (GMT -0800)
RAWS SALMON RIVER AK US | Change Station
CLOSE
Current Station
Persoonlijk weerstation
Location: Kiana, AK
Geometrische hoogte: 1201 ft
Nabije weerstations

Hoogte 1201 ft 67.46 °N, 159.84 °W | Updated 54 minutes ago

Clear
Helder
33 °F
Voelt als 29 °F
N
4
Wind Variabel Wind van west
Gusts 7.0 mijl/u

Vandaag
Hoog -- | Laag -- °F
--% Kans op neerslag
Gisteren
Hoog -- | Laag -- °F
Precip. -- inches
7:14 AM 10:05 PM
Wassende halvemaan, 50% visible
Druk 29.84 inches
Zicht 10.0 mijlen
Wolken Helder
Gevoelstemperatuur 29 °F
Dauwpunt 22 °F
Vochtigheid 64%
Neerslag -999.00 inches
Dikte sneeuw Niet beschikbaar.
UV 0 van de 12
Pollen Niet beschikbaar.
Luchtkwaliteit Niet beschikbaar.
Flu Activity Niet beschikbaar.
METAR PAIK 021101Z AUTO 24007KT 10SM CLR 01/M03 A2972 RMK AO2 SLP105 T00061028 FZRANO

More Conditions Fewer Conditions

Druk 29.84 inches
Zicht 10.0 mijlen
Wolken Helder
Gevoelstemperatuur 29 °F
Dauwpunt 22 °F
Vochtigheid 64%
Neerslag -999.00 inches
Dikte sneeuw Niet beschikbaar.
UV 0 van de 12
Pollen Niet beschikbaar.
Luchtkwaliteit Niet beschikbaar.
Flu Activity Niet beschikbaar.
METAR PAIK 021101Z AUTO 24007KT 10SM CLR 01/M03 A2972 RMK AO2 SLP105 T00061028 FZRANO

More Conditions Fewer Conditions

10-Day Weather Forecast

Almanac

Astronomie

Sep. 02, 2014 Opkomst Ondergang
Werkelijke tijd 7:14 AM AKDT 10:05 PM AKDT
Burgerlijke schemering 6:11 AM AKDT 11:07 PM AKDT
Nautische schemering 4:33 AM AKDT 12:42 AM AKDT
Astronomische schemering Sun does not rise Sun does not rise
Maan 6:45 PM AKDT 11:35 PM AKDT
Golflengte van het zichtbare licht 16h 56m
Daglengte
14h 50m
Tomorrow will be 7m 45s shorter.
Wassende halvemaan, 50% of the Moon is Illuminated
Vandaag
Wassende halvemaan
sep 8
Volle maan
sep 15
Laatste kwartier
sep 24
Nieuw
oktober 1
Eerste kwartier

Extremen vandaag

State Highs State Lows

Community

WunderPhotos

Upload Photos

1,749,621 foto’s ge-upload!

WunderBlogs® & News

By Dr. Jeff Masters
Director of Meteorology, Weather Underground
By Kari Strenfel
Meteorologist, Weather Underground
By Christopher C. Burt
Weather Historian, Weather Underground
September 2, 2014
September 2, 2014
September 2, 2014

Nearby

Luchtkwaliteit

Not available.

Dikte sneeuw

Station Depth Geometrische hoogte
Rocky Point 4 in 500 ft
Gobblers Knob 0 in 2030 ft
Coldfoot 1 in 1040 ft
Atigun Pass 9 in 4800 ft
Imnaviat Creek 0 in 3050 ft

Aardbevingen

Stad Distance Mag. Time & Date
No recent earthquake activity has been reported nearby.
Minimum magnitude displayed is 2.5.

Watertemperatuur langs de kust

Plaats Temperatuur
Geen meldingen van stations

Nabije weerstations